createdAt,value
2022-12-31T00:01:19.547Z,49.80
2022-12-31T00:04:14.009Z,49.90
2022-12-31T00:07:08.516Z,49.10
2022-12-31T00:10:02.758Z,49.10
2022-12-31T00:12:57.101Z,49.40
2022-12-31T00:15:51.412Z,47.90
2022-12-31T00:18:47.518Z,48.80
2022-12-31T00:21:42.259Z,48.50
2022-12-31T00:24:37.171Z,48.10
2022-12-31T00:27:35.175Z,48.30
2022-12-31T00:30:29.588Z,48.20
2022-12-31T00:33:24.026Z,48.00
2022-12-31T00:36:32.970Z,47.00
2022-12-31T00:39:27.278Z,47.30
2022-12-31T00:42:21.552Z,48.00
2022-12-31T00:45:15.855Z,45.90
2022-12-31T00:48:10.153Z,45.00
2022-12-31T00:51:06.693Z,44.60
2022-12-31T00:54:01.179Z,44.40
2022-12-31T00:56:55.405Z,43.80
2022-12-31T00:59:49.794Z,43.70
2022-12-31T01:02:44.339Z,44.30
2022-12-31T01:05:39.340Z,43.80
2022-12-31T01:08:34.456Z,44.20
2022-12-31T01:11:32.008Z,42.70
2022-12-31T01:14:26.320Z,44.20
2022-12-31T01:17:20.832Z,45.30
2022-12-31T01:20:15.143Z,46.00
2022-12-31T01:23:10.877Z,48.00
2022-12-31T01:26:07.368Z,47.70
2022-12-31T01:29:01.795Z,47.50
2022-12-31T01:31:56.143Z,47.70
2022-12-31T01:34:50.722Z,48.50
2022-12-31T01:37:45.118Z,48.00
2022-12-31T01:40:40.736Z,48.10
2022-12-31T01:44:10.263Z,47.00
2022-12-31T01:47:06.397Z,46.90
2022-12-31T01:50:24.076Z,47.70
2022-12-31T01:53:19.078Z,46.30
2022-12-31T01:56:13.383Z,45.30
2022-12-31T01:59:09.709Z,46.10
2022-12-31T02:02:05.015Z,47.10
2022-12-31T02:05:03.131Z,46.80
2022-12-31T02:07:57.817Z,46.50
2022-12-31T02:10:52.408Z,46.20
2022-12-31T02:13:46.668Z,45.90
2022-12-31T02:16:56.250Z,44.90
2022-12-31T02:20:18.316Z,43.10
2022-12-31T02:23:31.231Z,43.70
2022-12-31T02:26:28.396Z,43.10
2022-12-31T02:29:59.940Z,44.50
2022-12-31T02:33:21.780Z,43.50
2022-12-31T02:36:24.808Z,43.10
2022-12-31T02:39:20.093Z,44.20
2022-12-31T02:42:14.828Z,43.80
2022-12-31T02:45:12.502Z,44.90
2022-12-31T02:48:33.626Z,44.20
2022-12-31T02:51:48.580Z,44.50
2022-12-31T02:54:53.136Z,44.80
2022-12-31T02:58:00.425Z,45.70
2022-12-31T03:01:17.689Z,44.60
2022-12-31T03:04:31.632Z,43.60
2022-12-31T03:07:29.191Z,43.40
2022-12-31T03:10:23.642Z,42.70
2022-12-31T03:13:18.088Z,43.20
2022-12-31T03:16:12.491Z,44.00
2022-12-31T03:19:25.094Z,43.10
2022-12-31T03:22:31.613Z,43.20
2022-12-31T03:25:36.352Z,42.10
2022-12-31T03:28:31.972Z,42.90
2022-12-31T03:31:26.464Z,41.30
2022-12-31T03:34:20.890Z,42.20
2022-12-31T03:37:15.339Z,41.60
2022-12-31T03:40:12.216Z,41.90
2022-12-31T03:43:06.767Z,41.60
2022-12-31T03:46:02.738Z,43.20
2022-12-31T03:48:57.115Z,43.30
2022-12-31T03:51:51.434Z,42.10
2022-12-31T03:54:45.789Z,42.60
2022-12-31T03:57:40.306Z,41.80
2022-12-31T04:00:34.780Z,41.40
2022-12-31T04:03:29.973Z,42.10
2022-12-31T04:06:24.395Z,43.10
2022-12-31T04:09:18.645Z,43.00
2022-12-31T04:12:12.964Z,43.00
2022-12-31T04:15:10.000Z,42.80
2022-12-31T04:18:04.447Z,42.60
2022-12-31T04:21:06.928Z,42.10
2022-12-31T04:24:01.437Z,42.10
2022-12-31T04:26:55.738Z,42.40
2022-12-31T04:29:50.024Z,42.00
2022-12-31T04:32:44.845Z,41.80
2022-12-31T04:35:39.210Z,41.10
2022-12-31T04:38:33.549Z,41.10
2022-12-31T04:41:28.627Z,40.40
2022-12-31T04:44:23.315Z,41.70
2022-12-31T04:47:23.429Z,41.00
2022-12-31T04:50:18.225Z,40.90
2022-12-31T04:53:12.814Z,41.40
2022-12-31T04:56:08.228Z,41.10
2022-12-31T04:59:02.832Z,39.80
2022-12-31T05:01:57.253Z,39.60
2022-12-31T05:04:51.742Z,39.10
2022-12-31T05:07:46.121Z,38.50
2022-12-31T05:10:47.509Z,38.60
2022-12-31T05:13:41.827Z,38.00
2022-12-31T05:16:37.432Z,38.20
2022-12-31T05:19:31.766Z,37.00
2022-12-31T05:22:32.199Z,36.40
2022-12-31T05:25:26.570Z,37.50
2022-12-31T05:28:20.978Z,37.90
2022-12-31T05:31:16.260Z,36.70
2022-12-31T05:34:10.678Z,36.10
2022-12-31T05:37:05.099Z,35.90
2022-12-31T05:39:59.892Z,36.20
2022-12-31T05:42:54.252Z,34.10
2022-12-31T05:45:48.680Z,34.00
2022-12-31T05:48:42.985Z,33.30
2022-12-31T05:51:37.351Z,34.40
2022-12-31T05:54:31.687Z,35.30
2022-12-31T05:57:26.002Z,33.50
2022-12-31T06:00:20.430Z,34.50
2022-12-31T06:03:15.194Z,33.30
2022-12-31T06:06:09.685Z,32.70
2022-12-31T06:09:04.052Z,33.20
2022-12-31T06:11:58.303Z,32.50
2022-12-31T06:14:52.661Z,32.70
2022-12-31T06:17:49.326Z,32.80
2022-12-31T06:20:43.868Z,33.50
2022-12-31T06:23:38.150Z,32.30
2022-12-31T06:26:32.544Z,31.80
2022-12-31T06:29:26.829Z,32.50
2022-12-31T06:32:21.233Z,32.40
2022-12-31T06:35:15.576Z,32.00
2022-12-31T06:38:09.988Z,31.20
2022-12-31T06:41:09.296Z,31.30
2022-12-31T06:44:03.895Z,30.70
2022-12-31T06:46:58.176Z,30.20
2022-12-31T06:49:53.606Z,31.60
2022-12-31T06:52:47.843Z,31.10
2022-12-31T06:55:43.107Z,30.60
2022-12-31T06:58:38.332Z,31.90
2022-12-31T07:02:02.282Z,30.80
2022-12-31T07:05:02.516Z,30.20
2022-12-31T07:08:11.713Z,31.30
2022-12-31T07:11:15.683Z,32.00
2022-12-31T07:14:39.054Z,31.30
2022-12-31T07:17:48.465Z,30.60
2022-12-31T07:20:43.163Z,31.70
2022-12-31T07:23:37.763Z,30.30
2022-12-31T07:26:52.639Z,31.10
2022-12-31T07:29:59.322Z,30.60
2022-12-31T07:32:59.792Z,31.00
2022-12-31T07:36:10.203Z,31.30
2022-12-31T07:39:30.349Z,31.60
2022-12-31T07:43:10.284Z,32.30
2022-12-31T07:46:15.737Z,32.80
2022-12-31T07:49:17.131Z,33.00
2022-12-31T07:52:12.167Z,33.50
2022-12-31T07:55:06.915Z,34.30
2022-12-31T07:58:19.204Z,34.80
2022-12-31T08:01:24.451Z,35.40
2022-12-31T08:04:47.960Z,36.20
2022-12-31T08:08:12.823Z,37.60
2022-12-31T08:11:24.881Z,37.80
2022-12-31T08:14:21.297Z,38.30
2022-12-31T08:17:17.937Z,38.60
2022-12-31T08:20:18.578Z,38.70
2022-12-31T08:23:38.434Z,38.70
2022-12-31T08:26:53.069Z,39.10
2022-12-31T08:30:07.965Z,39.60
2022-12-31T08:33:11.728Z,40.00
2022-12-31T08:36:21.265Z,40.30
2022-12-31T08:39:24.422Z,40.70
2022-12-31T08:42:40.118Z,41.10
2022-12-31T08:45:49.067Z,41.50
2022-12-31T08:48:45.460Z,41.70
2022-12-31T08:51:40.045Z,41.90
2022-12-31T08:54:35.003Z,42.00
2022-12-31T08:57:32.372Z,42.20
2022-12-31T09:00:28.222Z,42.60
2022-12-31T09:03:57.093Z,42.70
2022-12-31T09:07:00.562Z,42.90
2022-12-31T09:09:57.874Z,42.80
2022-12-31T09:13:10.255Z,42.80
2022-12-31T09:16:13.573Z,43.10
2022-12-31T09:19:10.182Z,43.20
2022-12-31T09:22:04.928Z,43.30
2022-12-31T09:24:59.759Z,43.70
2022-12-31T09:28:04.971Z,43.80
2022-12-31T09:31:17.307Z,43.90
2022-12-31T09:34:35.017Z,44.00
2022-12-31T09:37:50.913Z,44.10
2022-12-31T09:41:09.433Z,44.20
2022-12-31T09:44:19.097Z,44.40
2022-12-31T09:47:38.012Z,44.40
2022-12-31T09:50:57.001Z,44.70
2022-12-31T09:54:27.926Z,44.90
2022-12-31T09:57:41.318Z,45.00
2022-12-31T10:00:58.539Z,44.80
2022-12-31T10:04:11.424Z,44.80
2022-12-31T10:07:18.675Z,44.40
2022-12-31T10:10:50.471Z,44.20
2022-12-31T10:13:44.654Z,44.10
2022-12-31T10:17:16.115Z,44.00
2022-12-31T10:20:29.448Z,44.30
2022-12-31T10:23:42.242Z,44.50
2022-12-31T10:27:03.987Z,44.70
2022-12-31T10:30:05.037Z,44.50
2022-12-31T10:33:37.801Z,44.60
2022-12-31T10:36:57.749Z,44.60
2022-12-31T10:40:04.256Z,44.80
2022-12-31T10:43:29.260Z,44.90
2022-12-31T10:47:05.133Z,45.00
2022-12-31T10:50:17.993Z,45.20
2022-12-31T10:53:37.588Z,44.60
2022-12-31T10:57:08.765Z,44.20
2022-12-31T11:00:18.214Z,43.60
2022-12-31T11:03:15.562Z,42.90
2022-12-31T11:06:46.137Z,42.40
2022-12-31T11:09:55.861Z,42.90
2022-12-31T11:13:14.533Z,43.20
2022-12-31T11:16:30.185Z,42.80
2022-12-31T11:19:34.318Z,42.10
2022-12-31T11:22:51.912Z,42.50
2022-12-31T11:26:08.739Z,43.00
2022-12-31T11:29:30.908Z,43.20
2022-12-31T11:33:20.617Z,43.50
2022-12-31T11:36:19.797Z,43.60
2022-12-31T11:39:32.295Z,43.90
2022-12-31T11:42:44.648Z,44.30
2022-12-31T11:46:20.219Z,45.00
2022-12-31T11:49:29.919Z,45.30
2022-12-31T11:52:40.121Z,45.60
2022-12-31T11:55:43.868Z,46.00
2022-12-31T11:58:38.250Z,45.70
2022-12-31T12:02:02.064Z,45.70
2022-12-31T12:05:00.872Z,46.00
2022-12-31T12:07:58.488Z,45.80
2022-12-31T12:11:07.099Z,45.30
2022-12-31T12:14:01.598Z,45.30
2022-12-31T12:17:04.759Z,45.70
2022-12-31T12:20:04.789Z,45.60
2022-12-31T12:23:01.100Z,45.90
2022-12-31T12:25:55.462Z,46.10
2022-12-31T12:28:49.765Z,45.90
2022-12-31T12:31:57.717Z,46.00
2022-12-31T12:34:52.529Z,45.80
2022-12-31T12:37:47.103Z,45.60
2022-12-31T12:40:41.656Z,45.20
2022-12-31T12:43:38.531Z,45.10
2022-12-31T12:46:50.508Z,45.20
2022-12-31T12:49:48.898Z,45.40
2022-12-31T12:53:17.068Z,45.50
2022-12-31T12:56:29.785Z,45.40
2022-12-31T13:00:05.801Z,45.90
2022-12-31T13:03:28.385Z,45.40
2022-12-31T13:06:28.933Z,45.80
2022-12-31T13:10:08.760Z,46.30
2022-12-31T13:13:24.993Z,46.80
2022-12-31T13:16:27.521Z,46.80
2022-12-31T13:19:46.552Z,47.10
2022-12-31T13:22:57.466Z,46.20
2022-12-31T13:26:10.942Z,44.20
2022-12-31T13:29:07.559Z,43.50
2022-12-31T13:32:06.305Z,43.00
2022-12-31T13:35:35.281Z,42.50
2022-12-31T13:38:54.470Z,42.00
2022-12-31T13:41:59.437Z,41.70
2022-12-31T13:45:06.068Z,42.10
2022-12-31T13:48:08.424Z,42.80
2022-12-31T13:51:16.724Z,43.00
2022-12-31T13:54:48.414Z,43.40
2022-12-31T13:57:57.738Z,43.60
2022-12-31T14:01:00.475Z,43.60
2022-12-31T14:04:13.385Z,44.30
2022-12-31T14:07:29.179Z,44.40
2022-12-31T14:10:48.927Z,43.70
2022-12-31T14:13:43.292Z,42.80
2022-12-31T14:16:58.905Z,43.10
2022-12-31T14:20:31.967Z,42.50
2022-12-31T14:23:38.477Z,42.00
2022-12-31T14:26:43.821Z,42.10
2022-12-31T14:29:51.442Z,42.00
2022-12-31T14:32:48.264Z,42.10
2022-12-31T14:36:16.036Z,41.90
2022-12-31T14:39:25.178Z,41.90
2022-12-31T14:42:47.395Z,42.00
2022-12-31T14:46:13.276Z,42.00
2022-12-31T14:49:25.898Z,42.00
2022-12-31T14:52:36.824Z,42.00
2022-12-31T14:55:33.341Z,41.80
2022-12-31T14:58:40.565Z,42.20
2022-12-31T15:01:35.139Z,42.60
2022-12-31T15:04:46.764Z,43.00
2022-12-31T15:07:50.258Z,43.20
2022-12-31T15:10:59.166Z,43.50
2022-12-31T15:14:10.361Z,43.70
2022-12-31T15:17:18.115Z,44.60
2022-12-31T15:20:21.058Z,44.00
2022-12-31T15:23:43.619Z,43.90
2022-12-31T15:26:38.640Z,42.70
2022-12-31T15:29:53.068Z,42.80
2022-12-31T15:32:49.399Z,42.90
2022-12-31T15:35:56.489Z,43.10
2022-12-31T15:38:52.047Z,42.90
2022-12-31T15:45:15.125Z,42.90
2022-12-31T15:48:28.281Z,42.80
2022-12-31T15:51:31.819Z,42.60
2022-12-31T15:54:47.929Z,42.80
2022-12-31T15:57:43.664Z,42.80
2022-12-31T16:01:11.180Z,42.80
2022-12-31T16:04:10.038Z,43.10
2022-12-31T16:07:05.735Z,42.60
2022-12-31T16:10:04.272Z,42.70
2022-12-31T16:13:00.141Z,42.60
2022-12-31T16:16:04.756Z,42.80
2022-12-31T16:19:00.167Z,42.80
2022-12-31T16:21:58.347Z,42.90
2022-12-31T16:28:20.724Z,43.40
2022-12-31T16:31:21.893Z,43.70
2022-12-31T16:34:19.177Z,44.00
2022-12-31T16:37:17.587Z,44.30
2022-12-31T16:40:25.539Z,44.50
2022-12-31T16:43:40.207Z,44.60
2022-12-31T16:46:34.689Z,44.80
2022-12-31T16:49:32.255Z,45.10
2022-12-31T16:52:42.640Z,45.30
2022-12-31T16:55:37.719Z,45.60
2022-12-31T16:58:39.077Z,45.70
2022-12-31T17:01:37.576Z,45.70
2022-12-31T17:04:32.285Z,45.60
2022-12-31T17:07:29.673Z,45.60
2022-12-31T17:10:28.294Z,46.10
2022-12-31T17:13:38.697Z,46.40
2022-12-31T17:16:33.870Z,47.20
2022-12-31T17:20:02.337Z,46.70
2022-12-31T17:23:00.381Z,46.90
2022-12-31T17:26:23.710Z,46.80
2022-12-31T17:29:26.383Z,47.10
2022-12-31T17:32:38.899Z,47.10
2022-12-31T17:35:37.955Z,47.40
2022-12-31T17:38:34.720Z,47.50
2022-12-31T17:41:29.840Z,47.60
2022-12-31T17:44:28.562Z,48.00
2022-12-31T17:47:22.928Z,48.20
2022-12-31T17:50:22.048Z,48.30
2022-12-31T17:53:16.677Z,48.60
2022-12-31T17:56:19.749Z,48.70
2022-12-31T17:59:20.532Z,48.90
2022-12-31T18:02:15.684Z,49.00
2022-12-31T18:05:20.493Z,49.30
2022-12-31T18:08:14.874Z,49.70
2022-12-31T18:11:13.717Z,50.00
2022-12-31T18:14:08.692Z,50.10
2022-12-31T18:17:03.096Z,50.20
2022-12-31T18:20:05.574Z,50.40
2022-12-31T18:23:00.768Z,50.90
2022-12-31T18:25:55.294Z,51.00
2022-12-31T18:28:50.628Z,51.00
2022-12-31T18:31:47.923Z,51.20
2022-12-31T18:34:41.703Z,51.60
2022-12-31T18:37:37.257Z,51.60
2022-12-31T18:40:31.492Z,51.60
2022-12-31T18:43:26.503Z,51.60
2022-12-31T18:46:23.140Z,51.90
2022-12-31T18:49:17.580Z,52.00
2022-12-31T18:52:16.254Z,51.70
2022-12-31T18:55:47.042Z,52.30
2022-12-31T18:58:41.728Z,51.80
2022-12-31T19:01:43.082Z,51.90
2022-12-31T19:04:37.345Z,52.00
2022-12-31T19:07:31.672Z,52.20
2022-12-31T19:10:27.582Z,52.60
2022-12-31T19:13:24.320Z,52.80
2022-12-31T19:16:19.184Z,52.50
2022-12-31T19:19:14.282Z,52.60
2022-12-31T19:22:08.583Z,52.50
2022-12-31T19:25:02.976Z,52.60
2022-12-31T19:27:57.273Z,52.70
2022-12-31T19:30:52.368Z,52.70
2022-12-31T19:33:46.843Z,53.00
2022-12-31T19:36:44.057Z,53.10
2022-12-31T19:39:38.749Z,53.30
2022-12-31T19:42:33.089Z,53.50
2022-12-31T19:45:30.064Z,53.70
2022-12-31T19:48:32.271Z,53.90
2022-12-31T19:51:26.788Z,54.10
2022-12-31T19:54:21.103Z,54.20
2022-12-31T19:57:15.388Z,54.50
2022-12-31T20:00:12.339Z,54.70
2022-12-31T20:03:06.718Z,54.80
2022-12-31T20:06:12.371Z,55.10
2022-12-31T20:09:07.021Z,55.20
2022-12-31T20:12:01.513Z,55.40
2022-12-31T20:14:55.952Z,55.50
2022-12-31T20:17:50.378Z,55.60
2022-12-31T20:20:55.148Z,55.90
2022-12-31T20:23:51.385Z,56.10
2022-12-31T20:26:45.677Z,56.30
2022-12-31T20:29:40.060Z,56.40
2022-12-31T20:32:35.597Z,56.60
2022-12-31T20:35:30.204Z,56.30
2022-12-31T20:38:24.480Z,56.40
2022-12-31T20:41:21.440Z,56.10
2022-12-31T20:44:15.758Z,56.10
2022-12-31T20:47:10.253Z,56.30
2022-12-31T20:50:12.690Z,56.30
2022-12-31T20:53:08.559Z,56.40
2022-12-31T20:56:07.106Z,56.20
2022-12-31T20:59:02.609Z,55.80
2022-12-31T21:02:29.637Z,55.90
2022-12-31T21:05:12.099Z,55.40
2022-12-31T21:08:06.633Z,55.50
2022-12-31T21:11:00.953Z,55.50
2022-12-31T21:13:55.832Z,55.50
2022-12-31T21:16:50.176Z,55.70
2022-12-31T21:19:44.464Z,55.80
2022-12-31T21:22:39.053Z,55.70
2022-12-31T21:25:33.234Z,55.60
2022-12-31T21:28:27.722Z,56.20
2022-12-31T21:31:22.086Z,56.30
2022-12-31T21:34:16.388Z,56.10
2022-12-31T21:37:10.677Z,56.10
2022-12-31T21:40:05.395Z,55.90
2022-12-31T21:43:00.324Z,55.70
2022-12-31T21:46:14.812Z,55.30
2022-12-31T21:49:09.246Z,55.00
2022-12-31T21:52:21.739Z,54.70
2022-12-31T21:55:51.313Z,54.20
2022-12-31T21:58:48.976Z,53.90
2022-12-31T22:02:02.252Z,54.10
2022-12-31T22:05:10.365Z,53.30
2022-12-31T22:08:09.186Z,53.20
2022-12-31T22:11:05.232Z,53.20
2022-12-31T22:13:59.590Z,52.90
2022-12-31T22:16:54.037Z,52.20
2022-12-31T22:20:17.125Z,50.40
2022-12-31T22:23:02.759Z,50.10
2022-12-31T22:25:56.956Z,48.20
2022-12-31T22:28:51.916Z,47.60
2022-12-31T22:31:46.219Z,45.90
2022-12-31T22:34:40.647Z,44.30
2022-12-31T22:37:56.095Z,43.80
2022-12-31T22:40:49.228Z,43.40
2022-12-31T22:43:46.048Z,42.80
2022-12-31T22:46:39.844Z,43.10
2022-12-31T22:49:34.225Z,42.30
2022-12-31T22:52:28.558Z,42.40
2022-12-31T22:55:22.856Z,41.80
2022-12-31T22:58:17.294Z,41.70
2022-12-31T23:01:23.092Z,41.50
2022-12-31T23:04:17.894Z,40.70
2022-12-31T23:07:12.314Z,41.20
2022-12-31T23:10:25.363Z,41.50
2022-12-31T23:13:37.999Z,40.30
2022-12-31T23:16:50.667Z,40.00
2022-12-31T23:20:02.893Z,40.30
2022-12-31T23:23:12.695Z,40.30
2022-12-31T23:26:08.173Z,40.70
2022-12-31T23:29:03.381Z,39.80
2022-12-31T23:31:57.679Z,40.10
2022-12-31T23:34:52.105Z,39.60
2022-12-31T23:37:46.372Z,39.80
2022-12-31T23:40:40.793Z,37.80
2022-12-31T23:43:35.027Z,38.50
2022-12-31T23:46:29.367Z,39.80
2022-12-31T23:49:23.701Z,40.00
2022-12-31T23:52:18.016Z,40.00
2022-12-31T23:55:12.792Z,39.90
2022-12-31T23:58:07.289Z,39.60
